Weather at Long Atip Airport

Public forecast

Using degrees Celsius for public forecast. Weather courtesy of forecast.io.

Closest aviation weather report (METAR) to Long Atip Airport

Closest report is Miri Airport, 52.4 nm (97.0 km) NW. Retrieved 2021/10/22 07:00 UTC (1 hour ago):

WBGR 220700Z VRB03KT 9999 SCT016 27/26 Q1010

Closest aviation forecast (TAF) to Long Atip Airport

Closest forecast is Miri Airport, 52.4 nm (97.0 km) NW. Retrieved 2021/10/22 06:00 UTC (2 hours ago):

TAF WBGR 220500Z 2206/2306 34007KT 9999 SCT016 TEMPO 2206/2209 3000 TSRA FEW015CB TEMPO 2214/2217 3000 TSRA FEW015CB